createdAt,value
2022-08-28T00:00:40.764Z,29.77
2022-08-28T00:03:09.570Z,34.03
2022-08-28T00:05:39.916Z,41.67
2022-08-28T00:08:09.002Z,30.85
2022-08-28T00:10:39.217Z,34.28
2022-08-28T00:13:08.327Z,44.45
2022-08-28T00:15:39.019Z,35.03
2022-08-28T00:18:08.277Z,33.20
2022-08-28T00:20:37.231Z,38.30
2022-08-28T00:23:07.541Z,35.42
2022-08-28T00:25:36.245Z,40.33
2022-08-28T00:28:08.793Z,40.58
2022-08-28T00:30:39.570Z,37.22
2022-08-28T00:33:10.691Z,36.42
2022-08-28T00:35:40.045Z,35.90
2022-08-28T00:38:10.576Z,39.53
2022-08-28T00:40:39.338Z,35.17
2022-08-28T00:43:09.296Z,38.35
2022-08-28T00:45:40.058Z,35.45
2022-08-28T00:48:09.804Z,41.00
2022-08-28T00:50:52.195Z,39.08
2022-08-28T00:55:55.038Z,25.80
2022-08-28T00:58:23.072Z,28.35
2022-08-28T01:00:51.127Z,33.10
2022-08-28T01:03:19.162Z,29.08
2022-08-28T01:05:49.265Z,24.60
2022-08-28T01:08:18.581Z,26.80
2022-08-28T01:10:51.429Z,32.40
2022-08-28T01:13:19.742Z,21.40
2022-08-28T01:15:49.341Z,21.00
2022-08-28T01:18:17.821Z,27.75
2022-08-28T01:20:50.351Z,22.52
2022-08-28T01:23:24.558Z,17.83
2022-08-28T01:25:53.929Z,13.73
2022-08-28T01:28:21.934Z,20.88
2022-08-28T01:30:50.285Z,17.15
2022-08-28T01:33:19.569Z,23.08
2022-08-28T01:35:56.110Z,18.05
2022-08-28T01:38:26.935Z,18.35
2022-08-28T01:40:57.774Z,17.40
2022-08-28T01:43:27.631Z,24.67
2022-08-28T01:46:00.085Z,16.50
2022-08-28T01:48:29.445Z,17.63
2022-08-28T01:50:57.441Z,19.65
2022-08-28T01:53:33.078Z,26.95
2022-08-28T01:56:05.620Z,20.20
2022-08-28T01:58:38.114Z,16.50
2022-08-28T02:01:11.566Z,16.80
2022-08-28T02:03:39.841Z,16.50
2022-08-28T02:06:08.011Z,20.55
2022-08-28T02:08:36.807Z,20.88
2022-08-28T02:11:08.770Z,19.67
2022-08-28T02:13:38.094Z,20.85
2022-08-28T02:16:08.816Z,21.60
2022-08-28T02:18:37.812Z,22.48
2022-08-28T02:21:06.044Z,19.95
2022-08-28T02:23:34.148Z,19.58
2022-08-28T02:26:02.099Z,21.00
2022-08-28T02:28:31.354Z,17.42
2022-08-28T02:30:59.712Z,21.58
2022-08-28T02:33:27.856Z,19.55
2022-08-28T02:35:56.363Z,17.08
2022-08-28T02:38:24.412Z,19.33
2022-08-28T02:40:52.810Z,21.50
2022-08-28T02:43:20.836Z,27.85
2022-08-28T02:45:50.382Z,24.05
2022-08-28T02:48:18.547Z,22.88
2022-08-28T02:50:47.128Z,16.15
2022-08-28T02:53:15.216Z,20.02
2022-08-28T02:55:43.173Z,20.92
2022-08-28T02:58:11.402Z,22.35
2022-08-28T03:00:40.124Z,21.70
2022-08-28T03:03:09.448Z,20.80
2022-08-28T03:05:37.429Z,21.92
2022-08-28T03:08:05.746Z,24.00
2022-08-28T03:10:33.807Z,21.27
2022-08-28T03:13:01.806Z,24.50
2022-08-28T03:15:29.763Z,21.30
2022-08-28T03:17:57.725Z,16.45
2022-08-28T03:20:27.064Z,23.75
2022-08-28T03:23:13.118Z,15.50
2022-08-28T03:25:41.136Z,20.55
2022-08-28T03:28:09.141Z,21.88
2022-08-28T03:30:37.405Z,19.33
2022-08-28T03:33:05.416Z,19.15
2022-08-28T03:35:34.943Z,19.10
2022-08-28T03:38:03.110Z,21.40
2022-08-28T03:40:32.256Z,19.40
2022-08-28T03:43:00.392Z,19.63
2022-08-28T03:45:28.540Z,19.48
2022-08-28T03:47:56.503Z,23.13
2022-08-28T03:50:25.849Z,29.02
2022-08-28T03:52:59.238Z,23.95
2022-08-28T03:55:27.240Z,19.08
2022-08-28T03:57:55.218Z,19.08
2022-08-28T04:00:23.417Z,22.13
2022-08-28T04:02:51.468Z,21.73
2022-08-28T04:05:19.617Z,17.85
2022-08-28T04:07:48.209Z,22.98
2022-08-28T04:10:17.724Z,22.52
2022-08-28T04:12:45.684Z,19.58
2022-08-28T04:15:15.171Z,19.40
2022-08-28T04:17:43.339Z,20.77
2022-08-28T04:20:12.118Z,19.52
2022-08-28T04:22:40.513Z,13.48
2022-08-28T04:25:09.160Z,16.15
2022-08-28T04:27:38.475Z,17.63
2022-08-28T04:30:09.916Z,23.60
2022-08-28T04:32:39.399Z,22.33
2022-08-28T04:35:09.643Z,16.10
2022-08-28T04:37:39.066Z,35.30
2022-08-28T04:40:09.810Z,27.73
2022-08-28T04:42:39.989Z,23.42
2022-08-28T04:45:08.533Z,23.88
2022-08-28T04:47:37.941Z,21.60
2022-08-28T04:50:07.725Z,22.65
2022-08-28T04:52:35.680Z,27.60
2022-08-28T04:55:04.183Z,23.40
2022-08-28T04:57:35.767Z,27.88
2022-08-28T05:00:09.163Z,25.73
2022-08-28T05:02:37.229Z,22.15
2022-08-28T05:05:05.957Z,20.35
2022-08-28T05:07:34.885Z,26.77
2022-08-28T05:10:03.879Z,27.42
2022-08-28T05:12:32.416Z,22.70
2022-08-28T05:15:00.421Z,24.92
2022-08-28T05:17:32.244Z,25.05
2022-08-28T05:20:00.213Z,18.65
2022-08-28T05:22:28.915Z,24.98
2022-08-28T05:24:57.036Z,25.67
2022-08-28T05:27:25.732Z,23.35
2022-08-28T05:29:56.311Z,24.42
2022-08-28T05:32:26.694Z,25.88
2022-08-28T05:34:56.021Z,33.28
2022-08-28T05:37:24.115Z,22.48
2022-08-28T05:39:52.104Z,23.95
2022-08-28T05:42:20.263Z,29.23
2022-08-28T05:44:48.322Z,26.08
2022-08-28T05:47:22.655Z,25.73
2022-08-28T05:49:50.842Z,23.30
2022-08-28T05:52:21.813Z,18.45
2022-08-28T05:54:49.873Z,22.15
2022-08-28T05:57:18.047Z,24.13
2022-08-28T05:59:46.011Z,25.27
2022-08-28T06:02:14.029Z,20.95
2022-08-28T06:04:42.075Z,31.27
2022-08-28T06:07:12.131Z,22.42
2022-08-28T06:09:41.455Z,24.92
2022-08-28T06:12:10.448Z,24.77
2022-08-28T06:14:40.156Z,25.65
2022-08-28T06:17:09.100Z,26.58
2022-08-28T06:19:41.379Z,23.33
2022-08-28T06:22:12.162Z,30.35
2022-08-28T06:24:42.207Z,29.92
2022-08-28T06:27:10.221Z,26.52
2022-08-28T06:29:39.807Z,23.13
2022-08-28T06:32:09.114Z,23.63
2022-08-28T06:34:37.263Z,19.63
2022-08-28T06:37:05.412Z,20.08
2022-08-28T06:39:33.414Z,18.27
2022-08-28T06:42:02.994Z,22.73
2022-08-28T06:44:32.292Z,20.70
2022-08-28T06:47:00.822Z,32.50
2022-08-28T06:49:29.005Z,24.60
2022-08-28T06:51:57.184Z,18.98
2022-08-28T06:54:25.284Z,24.90
2022-08-28T06:56:54.212Z,17.55
2022-08-28T06:59:23.563Z,29.95
2022-08-28T07:01:52.910Z,20.48
2022-08-28T07:04:21.088Z,20.08
2022-08-28T07:06:54.134Z,19.80
2022-08-28T07:09:23.226Z,26.30
2022-08-28T07:11:51.363Z,25.50
2022-08-28T07:14:19.385Z,22.00
2022-08-28T07:16:48.700Z,26.58
2022-08-28T07:19:17.020Z,22.33
2022-08-28T07:21:46.734Z,21.17
2022-08-28T07:24:16.118Z,20.88
2022-08-28T07:26:44.892Z,19.95
2022-08-28T07:29:13.122Z,21.88
2022-08-28T07:31:42.765Z,24.67
2022-08-28T07:34:13.944Z,22.92
2022-08-28T07:36:42.790Z,19.67
2022-08-28T07:39:13.162Z,21.20
2022-08-28T07:41:43.037Z,23.75
2022-08-28T07:44:31.579Z,20.33
2022-08-28T07:47:05.875Z,25.17
2022-08-28T07:49:36.314Z,21.45
2022-08-28T07:52:05.012Z,19.52
2022-08-28T07:54:33.263Z,116.38
2022-08-28T07:57:02.705Z,66.78
2022-08-28T07:59:36.585Z,40.15
2022-08-28T08:02:05.503Z,24.55
2022-08-28T08:04:35.453Z,18.80
2022-08-28T08:07:04.497Z,23.90
2022-08-28T08:09:33.866Z,27.55
2022-08-28T08:12:01.902Z,22.67
2022-08-28T08:14:29.982Z,21.25
2022-08-28T08:17:02.102Z,24.23
2022-08-28T08:19:30.107Z,19.77
2022-08-28T08:21:59.627Z,21.90
2022-08-28T08:24:30.206Z,21.83
2022-08-28T08:27:01.209Z,19.98
2022-08-28T08:29:31.802Z,26.98
2022-08-28T08:32:05.552Z,19.40
2022-08-28T08:34:36.341Z,21.95
2022-08-28T08:37:06.182Z,22.08
2022-08-28T08:39:35.025Z,17.98
2022-08-28T08:42:05.424Z,23.70
2022-08-28T08:44:35.331Z,21.85
2022-08-28T08:47:13.808Z,25.90
2022-08-28T08:49:44.905Z,28.38
2022-08-28T08:52:30.201Z,15.30
2022-08-28T08:55:07.965Z,26.17
2022-08-28T08:57:38.290Z,16.83
2022-08-28T09:00:11.220Z,20.92
2022-08-28T09:02:46.629Z,22.58
2022-08-28T09:05:18.799Z,23.45
2022-08-28T09:07:56.576Z,21.08
2022-08-28T09:10:26.381Z,19.05
2022-08-28T09:12:58.735Z,19.88
2022-08-28T09:15:31.326Z,21.38
2022-08-28T09:18:09.830Z,21.15
2022-08-28T09:20:37.966Z,17.52
2022-08-28T09:23:12.809Z,17.17
2022-08-28T09:25:54.653Z,30.48
2022-08-28T09:28:25.710Z,16.77
2022-08-28T09:31:05.657Z,26.13
2022-08-28T09:33:41.913Z,22.88
2022-08-28T09:36:27.361Z,17.75
2022-08-28T09:39:12.347Z,27.67
2022-08-28T09:42:10.789Z,20.00
2022-08-28T09:44:54.650Z,19.40
2022-08-28T09:47:46.480Z,21.35
2022-08-28T09:50:33.857Z,18.02
2022-08-28T09:53:18.317Z,21.20
2022-08-28T09:55:54.495Z,22.40
2022-08-28T09:58:22.782Z,25.77
2022-08-28T10:00:56.285Z,24.30
2022-08-28T10:03:27.929Z,25.00
2022-08-28T10:06:04.414Z,23.00
2022-08-28T10:08:52.076Z,19.50
2022-08-28T10:11:26.390Z,18.45
2022-08-28T10:14:04.048Z,21.77
2022-08-28T10:16:44.796Z,24.73
2022-08-28T10:19:21.089Z,22.27
2022-08-28T10:21:52.482Z,23.63
2022-08-28T10:24:31.316Z,22.30
2022-08-28T10:27:10.092Z,25.77
2022-08-28T10:29:49.583Z,21.15
2022-08-28T10:32:31.969Z,20.90
2022-08-28T10:37:51.017Z,24.35
2022-08-28T10:40:23.946Z,30.05
2022-08-28T10:42:57.927Z,140.60
2022-08-28T10:45:27.216Z,51.03
2022-08-28T10:47:58.275Z,45.03
2022-08-28T10:50:29.497Z,45.83
2022-08-28T10:53:01.188Z,31.63
2022-08-28T10:55:34.584Z,26.33
2022-08-28T10:58:21.524Z,55.42
2022-08-28T11:00:53.602Z,28.75
2022-08-28T11:03:34.383Z,34.95
2022-08-28T11:06:05.825Z,26.52
2022-08-28T11:08:36.820Z,27.88
2022-08-28T11:11:06.706Z,25.40
2022-08-28T11:13:56.213Z,26.33
2022-08-28T11:16:26.628Z,18.33
2022-08-28T11:19:17.425Z,19.30
2022-08-28T11:21:48.405Z,28.85
2022-08-28T11:24:29.552Z,19.57
2022-08-28T11:27:06.539Z,17.60
2022-08-28T11:30:06.455Z,22.83
2022-08-28T11:32:41.511Z,19.92
2022-08-28T11:35:51.012Z,15.20
2022-08-28T11:39:12.930Z,17.85
2022-08-28T11:42:22.026Z,12.75
2022-08-28T11:44:51.560Z,15.68
2022-08-28T11:47:44.151Z,15.43
2022-08-28T11:50:32.419Z,15.52
2022-08-28T11:53:16.292Z,10.18
2022-08-28T11:56:10.268Z,15.27
2022-08-28T11:58:43.470Z,11.80
2022-08-28T12:01:14.226Z,13.10
2022-08-28T12:03:44.630Z,9.32
2022-08-28T12:06:14.422Z,10.52
2022-08-28T12:09:09.779Z,10.63
2022-08-28T12:12:00.612Z,13.07
2022-08-28T12:14:59.317Z,12.75
2022-08-28T12:17:49.320Z,9.95
2022-08-28T12:20:32.317Z,12.18
2022-08-28T12:23:02.529Z,11.50
2022-08-28T12:25:35.166Z,13.10
2022-08-28T12:28:12.963Z,12.40
2022-08-28T12:30:44.983Z,14.35
2022-08-28T12:33:19.757Z,9.85
2022-08-28T12:35:47.793Z,8.68
2022-08-28T12:38:20.276Z,11.15
2022-08-28T12:40:53.552Z,15.38
2022-08-28T12:43:29.499Z,18.02
2022-08-28T12:45:58.900Z,17.85
2022-08-28T12:48:34.003Z,11.82
2022-08-28T12:51:05.608Z,22.58
2022-08-28T12:53:41.542Z,15.20
2022-08-28T12:56:10.982Z,10.23
2022-08-28T12:58:40.577Z,10.25
2022-08-28T13:01:11.442Z,12.77
2022-08-28T13:03:47.099Z,12.40
2022-08-28T13:06:15.609Z,10.02
2022-08-28T13:08:43.667Z,12.55
2022-08-28T13:11:19.547Z,14.82
2022-08-28T13:13:50.040Z,17.48
2022-08-28T13:16:36.864Z,17.23
2022-08-28T13:19:14.990Z,11.73
2022-08-28T13:21:58.444Z,17.73
2022-08-28T13:24:30.029Z,10.45
2022-08-28T13:27:06.292Z,10.82
2022-08-28T13:29:37.142Z,11.75
2022-08-28T13:32:07.121Z,14.32
2022-08-28T13:34:37.669Z,8.55
2022-08-28T13:37:20.113Z,14.77
2022-08-28T13:39:48.692Z,15.77
2022-08-28T13:42:17.896Z,14.52
2022-08-28T13:44:48.569Z,15.70
2022-08-28T13:47:17.268Z,10.23
2022-08-28T13:49:47.339Z,8.88
2022-08-28T13:52:15.600Z,13.82
2022-08-28T13:54:45.490Z,14.23
2022-08-28T13:57:14.397Z,11.55
2022-08-28T13:59:42.847Z,14.60
2022-08-28T14:02:31.640Z,13.85
2022-08-28T14:05:01.390Z,13.48
2022-08-28T14:07:29.998Z,13.48
2022-08-28T14:09:58.259Z,17.98
2022-08-28T14:12:33.137Z,10.23
2022-08-28T14:15:02.471Z,18.63
2022-08-28T14:17:30.529Z,13.52
2022-08-28T14:19:59.838Z,14.48
2022-08-28T14:22:30.891Z,12.43
2022-08-28T14:24:58.984Z,13.73
2022-08-28T14:27:27.072Z,13.27
2022-08-28T14:29:55.155Z,14.35
2022-08-28T14:32:23.248Z,12.60
2022-08-28T14:34:51.491Z,11.95
2022-08-28T14:37:19.691Z,11.80
2022-08-28T14:39:50.535Z,13.23
2022-08-28T14:42:19.314Z,66.38
2022-08-28T14:44:47.399Z,53.15
2022-08-28T14:47:15.965Z,25.05
2022-08-28T14:49:44.126Z,18.88
2022-08-28T14:52:12.462Z,12.05
2022-08-28T14:54:40.463Z,17.90
2022-08-28T14:57:11.870Z,9.63
2022-08-28T14:59:39.903Z,11.03
2022-08-28T15:02:08.875Z,13.00
2022-08-28T15:04:38.049Z,12.27
2022-08-28T15:07:10.519Z,12.35
2022-08-28T15:09:40.947Z,15.90
2022-08-28T15:12:11.291Z,13.07
2022-08-28T15:14:39.308Z,10.77
2022-08-28T15:17:08.601Z,10.07
2022-08-28T15:19:36.881Z,9.95
2022-08-28T15:22:05.572Z,10.18
2022-08-28T15:24:34.634Z,16.02
2022-08-28T15:27:03.261Z,7.40
2022-08-28T15:29:32.651Z,14.57
2022-08-28T15:32:01.534Z,13.32
2022-08-28T15:34:29.793Z,11.43
2022-08-28T15:36:58.810Z,14.73
2022-08-28T15:39:46.463Z,12.80
2022-08-28T15:42:15.123Z,13.02
2022-08-28T15:44:44.579Z,8.23
2022-08-28T15:47:13.762Z,11.10
2022-08-28T15:49:43.640Z,15.38
2022-08-28T15:52:18.603Z,14.55
2022-08-28T15:54:46.580Z,9.38
2022-08-28T15:57:14.577Z,9.15
2022-08-28T15:59:49.761Z,11.20
2022-08-28T16:02:19.142Z,12.43
2022-08-28T16:04:47.260Z,10.90
2022-08-28T16:07:15.590Z,11.85
2022-08-28T16:09:43.602Z,8.45
2022-08-28T16:12:11.595Z,6.10
2022-08-28T16:14:39.716Z,12.82
2022-08-28T16:17:11.038Z,9.95
2022-08-28T16:19:39.653Z,10.05
2022-08-28T16:22:07.775Z,8.80
2022-08-28T16:24:36.141Z,8.20
2022-08-28T16:27:04.392Z,14.65
2022-08-28T16:29:34.892Z,13.73
2022-08-28T16:32:05.195Z,9.55
2022-08-28T16:34:35.039Z,9.00
2022-08-28T16:37:05.662Z,10.98
2022-08-28T16:39:36.091Z,8.40
2022-08-28T16:42:05.208Z,7.20
2022-08-28T16:44:33.503Z,8.13
2022-08-28T16:47:01.821Z,10.02
2022-08-28T16:49:30.289Z,9.02
2022-08-28T16:51:59.750Z,7.90
2022-08-28T16:54:27.771Z,7.35
2022-08-28T16:56:55.739Z,12.30
2022-08-28T16:59:24.228Z,8.48
2022-08-28T17:01:53.869Z,6.88
2022-08-28T17:04:22.891Z,10.32
2022-08-28T17:06:50.927Z,11.20
2022-08-28T17:09:21.100Z,10.50
2022-08-28T17:11:51.786Z,8.85
2022-08-28T17:14:20.855Z,10.38
2022-08-28T17:16:49.478Z,14.80
2022-08-28T17:19:17.935Z,9.38
2022-08-28T17:22:03.763Z,10.57
2022-08-28T17:24:33.144Z,10.10
2022-08-28T17:27:05.435Z,9.23
2022-08-28T17:29:34.134Z,8.85
2022-08-28T17:32:02.210Z,12.32
2022-08-28T17:34:30.752Z,9.57
2022-08-28T17:36:58.883Z,11.93
2022-08-28T17:39:26.983Z,13.05
2022-08-28T17:41:56.630Z,12.95
2022-08-28T17:44:24.691Z,12.23
2022-08-28T17:46:52.789Z,9.18
2022-08-28T17:49:22.312Z,9.90
2022-08-28T17:51:51.093Z,16.92
2022-08-28T17:54:22.575Z,13.82
2022-08-28T17:56:51.012Z,9.00
2022-08-28T17:59:21.140Z,9.05
2022-08-28T18:01:49.844Z,8.10
2022-08-28T18:04:23.914Z,9.38
2022-08-28T18:06:54.327Z,13.10
2022-08-28T18:09:22.976Z,9.98
2022-08-28T18:11:51.546Z,10.32
2022-08-28T18:14:21.269Z,13.60
2022-08-28T18:16:49.611Z,11.75
2022-08-28T18:19:17.777Z,9.48
2022-08-28T18:21:46.229Z,9.15
2022-08-28T18:24:14.433Z,12.90
2022-08-28T18:26:43.385Z,12.23
2022-08-28T18:29:11.489Z,12.32
2022-08-28T18:31:41.356Z,12.32
2022-08-28T18:34:10.364Z,14.90
2022-08-28T18:36:39.924Z,12.00
2022-08-28T18:39:08.260Z,13.02
2022-08-28T18:41:43.790Z,13.55
2022-08-28T18:44:14.100Z,11.50
2022-08-28T18:46:44.201Z,8.32
2022-08-28T18:49:12.789Z,9.55
2022-08-28T18:51:43.066Z,12.90
2022-08-28T18:54:11.287Z,19.80
2022-08-28T18:56:40.857Z,14.38
2022-08-28T18:59:09.386Z,11.50
2022-08-28T19:01:38.190Z,15.07
2022-08-28T19:04:07.761Z,16.00
2022-08-28T19:06:36.772Z,11.13
2022-08-28T19:09:06.451Z,9.77
2022-08-28T19:11:35.828Z,17.98
2022-08-28T19:14:04.270Z,13.88
2022-08-28T19:16:32.669Z,13.80
2022-08-28T19:19:01.487Z,14.25
2022-08-28T19:21:31.469Z,13.38
2022-08-28T19:23:59.469Z,8.88
2022-08-28T19:26:28.717Z,9.98
2022-08-28T19:28:56.986Z,12.15
2022-08-28T19:31:26.193Z,7.25
2022-08-28T19:33:54.677Z,10.52
2022-08-28T19:36:22.876Z,8.82
2022-08-28T19:38:52.184Z,11.23
2022-08-28T19:41:20.158Z,10.57
2022-08-28T19:43:48.163Z,7.07
2022-08-28T19:46:19.611Z,7.28
2022-08-28T19:48:48.428Z,11.40
2022-08-28T19:51:22.808Z,11.95
2022-08-28T19:53:57.867Z,13.10
2022-08-28T19:56:27.747Z,6.25
2022-08-28T19:58:58.505Z,9.00
2022-08-28T20:01:29.341Z,9.68
2022-08-28T20:03:58.129Z,11.77
2022-08-28T20:06:26.409Z,7.00
2022-08-28T20:08:55.841Z,9.45
2022-08-28T20:11:30.295Z,8.05
2022-08-28T20:14:06.576Z,10.10
2022-08-28T20:16:37.244Z,11.23
2022-08-28T20:19:08.063Z,9.40
2022-08-28T20:21:37.606Z,8.07
2022-08-28T20:24:09.940Z,11.20
2022-08-28T20:26:38.257Z,6.93
2022-08-28T20:29:07.533Z,12.23
2022-08-28T20:31:36.147Z,9.60
2022-08-28T20:34:04.916Z,13.65
2022-08-28T20:36:33.352Z,10.68
2022-08-28T20:39:04.382Z,11.30
2022-08-28T20:41:34.480Z,13.05
2022-08-28T20:44:04.955Z,11.07
2022-08-28T20:46:39.845Z,8.85
2022-08-28T20:49:09.709Z,8.65
2022-08-28T20:51:55.613Z,11.68
2022-08-28T20:54:27.515Z,9.85
2022-08-28T20:57:01.928Z,10.27
2022-08-28T20:59:39.511Z,8.82
2022-08-28T21:02:10.361Z,10.10
2022-08-28T21:04:39.122Z,14.02
2022-08-28T21:07:08.107Z,10.90
2022-08-28T21:10:03.829Z,10.68
2022-08-28T21:12:25.485Z,10.55
2022-08-28T21:14:53.948Z,8.15
2022-08-28T21:17:29.399Z,10.90
2022-08-28T21:19:59.179Z,9.70
2022-08-28T21:22:27.227Z,7.95
2022-08-28T21:24:55.460Z,7.95
2022-08-28T21:27:25.560Z,8.85
2022-08-28T21:29:56.393Z,9.88
2022-08-28T21:32:24.580Z,12.18
2022-08-28T21:34:53.083Z,10.10
2022-08-28T21:37:21.198Z,9.43
2022-08-28T21:39:49.309Z,12.98
2022-08-28T21:42:17.306Z,14.82
2022-08-28T21:44:51.946Z,13.40
2022-08-28T21:47:21.518Z,16.00
2022-08-28T21:49:50.389Z,14.50
2022-08-28T21:52:19.192Z,10.93
2022-08-28T21:54:47.245Z,9.38
2022-08-28T21:57:15.510Z,10.52
2022-08-28T21:59:43.835Z,9.40
2022-08-28T22:02:13.236Z,13.23
2022-08-28T22:04:41.368Z,13.52
2022-08-28T22:07:11.174Z,14.63
2022-08-28T22:09:39.355Z,9.77
2022-08-28T22:12:09.035Z,17.40
2022-08-28T22:14:37.495Z,13.40
2022-08-28T22:17:11.209Z,12.57
2022-08-28T22:19:41.296Z,17.48
2022-08-28T22:22:27.171Z,12.85
2022-08-28T22:24:55.209Z,10.73
2022-08-28T22:27:23.583Z,14.57
2022-08-28T22:29:52.078Z,13.15
2022-08-28T22:32:25.390Z,11.90
2022-08-28T22:34:55.718Z,10.73
2022-08-28T22:37:23.950Z,15.52
2022-08-28T22:39:52.161Z,13.88
2022-08-28T22:42:20.158Z,14.27
2022-08-28T22:44:48.564Z,13.38
2022-08-28T22:47:16.544Z,16.23
2022-08-28T22:49:47.244Z,11.90
2022-08-28T22:52:17.202Z,10.85
2022-08-28T22:54:45.603Z,8.77
2022-08-28T22:57:14.951Z,15.15
2022-08-28T22:59:42.994Z,11.52
2022-08-28T23:02:12.157Z,9.25
2022-08-28T23:04:40.629Z,15.43
2022-08-28T23:07:08.771Z,14.00
2022-08-28T23:09:38.437Z,13.65
2022-08-28T23:12:08.364Z,10.45
2022-08-28T23:14:36.629Z,14.20
2022-08-28T23:17:04.752Z,12.90
2022-08-28T23:19:32.767Z,10.80
2022-08-28T23:22:01.235Z,12.68
2022-08-28T23:24:31.356Z,12.23
2022-08-28T23:27:19.435Z,15.27
2022-08-28T23:29:53.195Z,12.68
2022-08-28T23:32:21.761Z,10.07
2022-08-28T23:34:50.247Z,14.43
2022-08-28T23:37:18.704Z,12.70
2022-08-28T23:39:46.852Z,14.75
2022-08-28T23:42:17.084Z,12.82
2022-08-28T23:44:46.288Z,16.30
2022-08-28T23:47:14.440Z,17.85
2022-08-28T23:49:42.931Z,18.42
2022-08-28T23:52:11.722Z,10.45
2022-08-28T23:54:40.390Z,10.75
2022-08-28T23:57:11.021Z,10.38
2022-08-28T23:59:40.479Z,19.98
